createdAt,value
2022-08-17T00:00:33.184Z,99.90
2022-08-17T00:05:35.633Z,99.90
2022-08-17T00:10:37.174Z,99.90
2022-08-17T00:15:38.745Z,99.90
2022-08-17T00:20:40.377Z,99.90
2022-08-17T00:25:42.026Z,99.90
2022-08-17T00:30:53.042Z,99.90
2022-08-17T00:35:55.255Z,99.90
2022-08-17T00:40:58.999Z,99.90
2022-08-17T00:46:01.084Z,99.90
2022-08-17T00:51:02.700Z,99.90
2022-08-17T00:56:04.458Z,99.90
2022-08-17T01:01:06.274Z,99.90
2022-08-17T01:06:07.979Z,99.90
2022-08-17T01:11:10.033Z,99.90
2022-08-17T01:16:11.791Z,99.90
2022-08-17T01:21:13.534Z,99.90
2022-08-17T01:26:15.283Z,99.90
2022-08-17T01:31:17.077Z,99.90
2022-08-17T01:36:18.809Z,99.90
2022-08-17T01:41:20.553Z,99.90
2022-08-17T01:46:22.315Z,99.90
2022-08-17T01:51:24.086Z,99.90
2022-08-17T01:56:25.818Z,99.90
2022-08-17T02:01:27.598Z,99.90
2022-08-17T02:06:29.332Z,99.90
2022-08-17T02:11:31.107Z,99.90
2022-08-17T02:16:37.755Z,99.90
2022-08-17T02:21:39.924Z,99.90
2022-08-17T02:26:41.690Z,99.90
2022-08-17T02:31:43.428Z,99.90
2022-08-17T02:36:45.231Z,99.90
2022-08-17T02:41:46.941Z,99.90
2022-08-17T02:46:48.694Z,99.90
2022-08-17T02:51:50.242Z,99.90
2022-08-17T02:56:51.887Z,99.90
2022-08-17T03:01:53.747Z,99.90
2022-08-17T03:06:55.379Z,99.90
2022-08-17T03:11:58.711Z,99.90
2022-08-17T03:17:00.286Z,99.90
2022-08-17T03:22:19.809Z,99.90
2022-08-17T03:27:23.472Z,99.90
2022-08-17T03:32:25.180Z,99.90
2022-08-17T03:37:26.918Z,99.90
2022-08-17T03:42:31.804Z,99.90
2022-08-17T03:47:34.511Z,99.90
2022-08-17T03:52:36.273Z,99.90
2022-08-17T03:57:38.047Z,99.90
2022-08-17T04:02:39.750Z,99.90
2022-08-17T04:07:41.481Z,99.90
2022-08-17T04:12:43.334Z,99.90
2022-08-17T04:17:45.049Z,99.90
2022-08-17T04:22:46.827Z,99.90
2022-08-17T04:27:51.983Z,99.90
2022-08-17T04:33:03.523Z,99.90
2022-08-17T04:38:12.710Z,99.90
2022-08-17T04:43:14.473Z,99.90
2022-08-17T04:48:20.290Z,99.90
2022-08-17T04:53:22.086Z,99.90
2022-08-17T04:58:23.817Z,99.90
2022-08-17T05:03:25.378Z,99.90
2022-08-17T05:08:27.029Z,99.90
2022-08-17T05:13:28.765Z,99.90
2022-08-17T05:18:30.411Z,99.90
2022-08-17T05:23:42.063Z,99.90
2022-08-17T05:28:44.994Z,99.90
2022-08-17T05:33:47.633Z,99.90
2022-08-17T05:38:49.237Z,99.90
2022-08-17T05:43:54.384Z,99.90
2022-08-17T05:48:57.858Z,99.90
2022-08-17T05:53:59.415Z,99.90
2022-08-17T05:59:01.075Z,99.90
2022-08-17T06:04:02.651Z,99.90
2022-08-17T06:09:04.370Z,99.90
2022-08-17T06:14:06.179Z,99.90
2022-08-17T06:19:07.870Z,99.90
2022-08-17T06:24:09.554Z,99.90
2022-08-17T06:29:18.681Z,99.90
2022-08-17T06:34:20.650Z,99.90
2022-08-17T06:39:22.316Z,99.90
2022-08-17T06:44:42.172Z,99.90
2022-08-17T06:49:45.757Z,99.90
2022-08-17T06:54:47.521Z,99.90
2022-08-17T06:59:56.357Z,98.90
2022-08-17T07:04:58.533Z,98.60
2022-08-17T07:10:00.302Z,97.70
2022-08-17T07:15:02.104Z,96.80
2022-08-17T07:20:03.702Z,95.70
2022-08-17T07:25:05.553Z,94.60
2022-08-17T07:30:10.617Z,94.10
2022-08-17T07:35:12.828Z,92.90
2022-08-17T07:40:17.247Z,93.00
2022-08-17T07:45:18.900Z,91.80
2022-08-17T07:50:25.364Z,91.10
2022-08-17T07:55:27.424Z,90.20
2022-08-17T08:00:32.241Z,89.60
2022-08-17T08:05:49.843Z,87.70
2022-08-17T08:10:52.057Z,86.50
2022-08-17T08:15:54.649Z,85.10
2022-08-17T08:20:56.507Z,83.40
2022-08-17T08:25:58.256Z,80.90
2022-08-17T08:30:59.856Z,80.00
2022-08-17T08:36:01.463Z,81.20
2022-08-17T08:41:03.028Z,79.00
2022-08-17T08:46:04.609Z,76.60
2022-08-17T08:51:06.196Z,75.20
2022-08-17T08:56:10.113Z,74.30
2022-08-17T09:01:17.124Z,73.40
2022-08-17T09:06:33.313Z,71.50
2022-08-17T09:12:02.109Z,71.00
2022-08-17T09:17:02.795Z,73.40
2022-08-17T09:22:04.579Z,73.10
2022-08-17T09:27:06.303Z,70.70
2022-08-17T09:32:08.065Z,72.00
2022-08-17T09:37:09.848Z,71.50
2022-08-17T09:42:11.399Z,70.50
2022-08-17T09:47:12.971Z,70.30
2022-08-17T09:52:14.758Z,69.20
2022-08-17T09:57:29.796Z,67.70
2022-08-17T10:02:32.368Z,65.50
2022-08-17T10:07:34.191Z,64.50
2022-08-17T10:12:35.921Z,64.30
2022-08-17T10:17:39.837Z,66.10
2022-08-17T10:22:41.406Z,63.70
2022-08-17T10:27:43.433Z,64.20
2022-08-17T10:32:45.106Z,64.10
2022-08-17T10:37:46.780Z,63.00
2022-08-17T10:42:48.395Z,63.50
2022-08-17T10:47:55.417Z,65.10
2022-08-17T10:52:57.742Z,62.40
2022-08-17T10:57:59.345Z,62.10
2022-08-17T11:03:00.957Z,63.20
2022-08-17T11:08:02.701Z,61.30
2022-08-17T11:13:06.327Z,61.60
2022-08-17T11:18:08.087Z,62.20
2022-08-17T11:23:09.642Z,60.30
2022-08-17T11:28:11.201Z,61.10
2022-08-17T11:33:13.050Z,60.90
2022-08-17T11:38:16.346Z,60.60
2022-08-17T11:43:18.427Z,61.40
2022-08-17T11:48:28.858Z,63.60
2022-08-17T11:53:31.028Z,64.40
2022-08-17T11:58:32.587Z,64.70
2022-08-17T12:03:34.339Z,65.90
2022-08-17T12:08:35.980Z,66.60
2022-08-17T12:13:39.697Z,65.50
2022-08-17T12:18:41.535Z,65.10
2022-08-17T12:23:44.177Z,65.60
2022-08-17T12:28:46.139Z,63.80
2022-08-17T12:33:47.728Z,64.30
2022-08-17T12:38:49.313Z,66.60
2022-08-17T12:43:50.887Z,65.30
2022-08-17T12:48:59.208Z,64.90
2022-08-17T12:54:01.568Z,64.10
2022-08-17T12:59:03.278Z,65.40
2022-08-17T13:04:04.994Z,64.70
2022-08-17T13:09:06.556Z,63.00
2022-08-17T13:14:08.180Z,62.10
2022-08-17T13:19:09.948Z,62.30
2022-08-17T13:24:11.605Z,62.30
2022-08-17T13:29:13.453Z,61.10
2022-08-17T13:34:15.199Z,62.50
2022-08-17T13:39:17.019Z,63.10
2022-08-17T13:44:18.608Z,62.10
2022-08-17T13:49:20.280Z,62.00
2022-08-17T13:54:21.851Z,60.60
2022-08-17T13:59:53.622Z,62.00
2022-08-17T14:04:45.253Z,62.70
2022-08-17T14:09:46.923Z,62.60
2022-08-17T14:14:48.769Z,63.10
2022-08-17T14:19:50.403Z,62.50
2022-08-17T14:24:51.970Z,62.50
2022-08-17T14:29:53.709Z,63.80
2022-08-17T14:34:55.458Z,63.60
2022-08-17T14:39:57.093Z,63.50
2022-08-17T14:44:58.786Z,63.30
2022-08-17T14:50:00.422Z,63.80
2022-08-17T14:55:02.170Z,67.20
2022-08-17T15:00:03.920Z,66.70
2022-08-17T15:05:05.683Z,66.30
2022-08-17T15:10:07.516Z,65.30
2022-08-17T15:15:09.188Z,65.30
2022-08-17T15:20:14.694Z,64.80
2022-08-17T15:25:16.766Z,66.40
2022-08-17T15:30:18.515Z,64.80
2022-08-17T15:35:26.855Z,65.50
2022-08-17T15:40:30.608Z,63.40
2022-08-17T15:45:36.742Z,64.80
2022-08-17T15:50:38.410Z,64.60
2022-08-17T15:55:40.007Z,64.10
2022-08-17T16:00:53.169Z,65.50
2022-08-17T16:06:03.207Z,63.40
2022-08-17T16:11:04.943Z,66.80
2022-08-17T16:16:06.695Z,65.20
2022-08-17T16:21:08.298Z,67.80
2022-08-17T16:26:09.896Z,66.70
2022-08-17T16:31:11.662Z,66.80
2022-08-17T16:36:13.303Z,68.30
2022-08-17T16:41:15.148Z,70.00
2022-08-17T16:46:16.897Z,70.70
2022-08-17T16:51:18.455Z,72.40
2022-08-17T16:56:20.100Z,72.90
2022-08-17T17:01:21.738Z,72.80
2022-08-17T17:06:23.333Z,74.10
2022-08-17T17:11:25.052Z,73.80
2022-08-17T17:16:26.694Z,73.40
2022-08-17T17:21:28.505Z,73.60
2022-08-17T17:26:30.376Z,73.20
2022-08-17T17:31:32.067Z,74.60
2022-08-17T17:36:33.710Z,73.60
2022-08-17T17:41:35.253Z,74.50
2022-08-17T17:46:36.844Z,74.20
2022-08-17T17:51:54.956Z,74.70
2022-08-17T17:57:00.267Z,77.60
2022-08-17T18:02:02.037Z,80.90
2022-08-17T18:07:03.682Z,81.30
2022-08-17T18:12:05.249Z,82.60
2022-08-17T18:17:07.583Z,80.60
2022-08-17T18:22:14.148Z,82.80
2022-08-17T18:27:16.107Z,83.00
2022-08-17T18:32:17.870Z,83.80
2022-08-17T18:37:19.578Z,84.20
2022-08-17T18:42:21.422Z,85.20
2022-08-17T18:47:23.039Z,88.00
2022-08-17T18:52:24.914Z,88.40
2022-08-17T18:57:26.642Z,89.30
2022-08-17T19:02:44.707Z,90.00
2022-08-17T19:07:47.794Z,92.10
2022-08-17T19:12:49.489Z,91.40
2022-08-17T19:17:51.331Z,91.30
2022-08-17T19:22:53.081Z,91.80
2022-08-17T19:27:57.810Z,92.90
2022-08-17T19:32:59.606Z,93.20
2022-08-17T19:38:01.354Z,94.40
2022-08-17T19:43:03.116Z,95.00
2022-08-17T19:48:05.172Z,96.10
2022-08-17T19:53:06.968Z,97.10
2022-08-17T19:58:08.700Z,97.70
2022-08-17T20:03:16.129Z,98.40
2022-08-17T20:08:18.887Z,98.10
2022-08-17T20:13:33.352Z,99.70
2022-08-17T20:18:35.879Z,99.90
2022-08-17T20:23:37.626Z,99.90
2022-08-17T20:28:39.416Z,99.90
2022-08-17T20:33:41.127Z,99.90
2022-08-17T20:38:42.887Z,99.90
2022-08-17T20:43:44.680Z,99.90
2022-08-17T20:48:46.930Z,99.90
2022-08-17T20:53:48.774Z,99.90
2022-08-17T20:58:50.408Z,99.90
2022-08-17T21:03:52.428Z,99.90
2022-08-17T21:08:54.081Z,99.90
2022-08-17T21:13:55.801Z,99.90
2022-08-17T21:18:57.349Z,99.90
2022-08-17T21:23:59.018Z,99.90
2022-08-17T21:29:01.667Z,99.90
2022-08-17T21:34:22.368Z,99.90
2022-08-17T21:39:24.090Z,99.90
2022-08-17T21:44:33.057Z,99.90
2022-08-17T21:49:37.658Z,99.90
2022-08-17T21:54:39.445Z,99.90
2022-08-17T21:59:41.151Z,99.90
2022-08-17T22:04:42.906Z,99.90
2022-08-17T22:09:44.638Z,99.90
2022-08-17T22:14:51.736Z,99.90
2022-08-17T22:19:55.359Z,99.90
2022-08-17T22:24:57.706Z,99.90
2022-08-17T22:29:59.362Z,99.90
2022-08-17T22:35:00.918Z,99.90
2022-08-17T22:40:02.774Z,99.90
2022-08-17T22:45:04.466Z,99.90
2022-08-17T22:50:06.194Z,99.90
2022-08-17T22:55:09.163Z,99.90
2022-08-17T23:00:11.277Z,99.90
2022-08-17T23:05:14.319Z,99.90
2022-08-17T23:10:16.043Z,99.90
2022-08-17T23:15:17.793Z,99.90
2022-08-17T23:20:19.581Z,99.90
2022-08-17T23:25:21.306Z,99.90
2022-08-17T23:30:24.113Z,99.90
2022-08-17T23:35:40.613Z,99.90
2022-08-17T23:40:42.891Z,99.90
2022-08-17T23:45:44.453Z,99.90
2022-08-17T23:50:46.164Z,99.90
2022-08-17T23:55:47.927Z,99.90
